sensor_id;sensor_type;location;lat;lon;timestamp;P1;durP1;ratioP1;P2;durP2;ratioP2
77322;SDS011;66384;51.052;9.850;2023-03-04T00:01:45;11.40;;;6.40;;
77322;SDS011;66384;51.052;9.850;2023-03-04T00:04:15;13.70;;;7.10;;
77322;SDS011;66384;51.052;9.850;2023-03-04T00:06:44;17.00;;;7.10;;
77322;SDS011;66384;51.052;9.850;2023-03-04T00:09:13;12.60;;;7.00;;
77322;SDS011;66384;51.052;9.850;2023-03-04T00:11:43;14.40;;;8.10;;
77322;SDS011;66384;51.052;9.850;2023-03-04T00:14:12;13.40;;;6.40;;
77322;SDS011;66384;51.052;9.850;2023-03-04T00:16:41;14.20;;;7.50;;
77322;SDS011;66384;51.052;9.850;2023-03-04T00:19:10;15.20;;;6.60;;
77322;SDS011;66384;51.052;9.850;2023-03-04T00:21:40;15.00;;;8.00;;
77322;SDS011;66384;51.052;9.850;2023-03-04T00:24:09;12.90;;;7.20;;
77322;SDS011;66384;51.052;9.850;2023-03-04T00:26:38;12.40;;;6.70;;
77322;SDS011;66384;51.052;9.850;2023-03-04T00:29:08;13.00;;;6.80;;
77322;SDS011;66384;51.052;9.850;2023-03-04T00:31:37;11.30;;;5.20;;
77322;SDS011;66384;51.052;9.850;2023-03-04T00:34:06;13.20;;;6.20;;
77322;SDS011;66384;51.052;9.850;2023-03-04T00:36:35;11.90;;;6.40;;
77322;SDS011;66384;51.052;9.850;2023-03-04T00:39:05;11.00;;;5.50;;
77322;SDS011;66384;51.052;9.850;2023-03-04T00:41:34;9.60;;;6.00;;
77322;SDS011;66384;51.052;9.850;2023-03-04T00:44:03;11.80;;;6.70;;
77322;SDS011;66384;51.052;9.850;2023-03-04T00:46:33;10.10;;;6.10;;
77322;SDS011;66384;51.052;9.850;2023-03-04T00:49:03;10.30;;;6.50;;
77322;SDS011;66384;51.052;9.850;2023-03-04T00:51:32;14.10;;;7.50;;
77322;SDS011;66384;51.052;9.850;2023-03-04T00:54:02;10.40;;;6.00;;
77322;SDS011;66384;51.052;9.850;2023-03-04T00:56:31;10.90;;;6.10;;
77322;SDS011;66384;51.052;9.850;2023-03-04T00:59:01;12.30;;;6.30;;
77322;SDS011;66384;51.052;9.850;2023-03-04T01:01:30;9.00;;;5.40;;
77322;SDS011;66384;51.052;9.850;2023-03-04T01:03:59;9.60;;;6.30;;
77322;SDS011;66384;51.052;9.850;2023-03-04T01:06:28;13.10;;;6.90;;
77322;SDS011;66384;51.052;9.850;2023-03-04T01:08:58;9.50;;;5.60;;
77322;SDS011;66384;51.052;9.850;2023-03-04T01:11:27;10.30;;;5.90;;
77322;SDS011;66384;51.052;9.850;2023-03-04T01:13:56;11.40;;;6.50;;
77322;SDS011;66384;51.052;9.850;2023-03-04T01:16:25;9.60;;;5.80;;
77322;SDS011;66384;51.052;9.850;2023-03-04T01:18:55;9.60;;;5.80;;
77322;SDS011;66384;51.052;9.850;2023-03-04T01:21:24;9.30;;;5.80;;
77322;SDS011;66384;51.052;9.850;2023-03-04T01:23:53;9.40;;;6.00;;
77322;SDS011;66384;51.052;9.850;2023-03-04T01:26:23;9.70;;;5.20;;
77322;SDS011;66384;51.052;9.850;2023-03-04T01:28:52;10.60;;;5.50;;
77322;SDS011;66384;51.052;9.850;2023-03-04T01:31:21;9.80;;;6.50;;
77322;SDS011;66384;51.052;9.850;2023-03-04T01:33:51;7.60;;;4.80;;
77322;SDS011;66384;51.052;9.850;2023-03-04T01:36:20;8.90;;;5.60;;
77322;SDS011;66384;51.052;9.850;2023-03-04T01:38:49;9.00;;;5.40;;
77322;SDS011;66384;51.052;9.850;2023-03-04T01:41:23;8.60;;;5.60;;
77322;SDS011;66384;51.052;9.850;2023-03-04T01:43:54;9.10;;;7.20;;
77322;SDS011;66384;51.052;9.850;2023-03-04T01:46:26;8.20;;;6.10;;
77322;SDS011;66384;51.052;9.850;2023-03-04T01:48:56;10.50;;;5.60;;
77322;SDS011;66384;51.052;9.850;2023-03-04T01:51:26;7.60;;;5.10;;
77322;SDS011;66384;51.052;9.850;2023-03-04T01:53:55;8.70;;;5.40;;
77322;SDS011;66384;51.052;9.850;2023-03-04T01:56:27;10.90;;;5.90;;
77322;SDS011;66384;51.052;9.850;2023-03-04T01:59:07;10.10;;;6.90;;
77322;SDS011;66384;51.052;9.850;2023-03-04T02:01:39;9.70;;;5.40;;
77322;SDS011;66384;51.052;9.850;2023-03-04T02:06:38;7.70;;;4.70;;
77322;SDS011;66384;51.052;9.850;2023-03-04T02:09:08;8.30;;;5.00;;
77322;SDS011;66384;51.052;9.850;2023-03-04T02:11:38;7.10;;;3.70;;
77322;SDS011;66384;51.052;9.850;2023-03-04T02:14:09;11.00;;;7.20;;
77322;SDS011;66384;51.052;9.850;2023-03-04T02:16:39;7.90;;;5.40;;
77322;SDS011;66384;51.052;9.850;2023-03-04T02:19:11;7.70;;;4.90;;
77322;SDS011;66384;51.052;9.850;2023-03-04T02:21:46;7.60;;;5.00;;
77322;SDS011;66384;51.052;9.850;2023-03-04T02:24:16;8.70;;;5.60;;
77322;SDS011;66384;51.052;9.850;2023-03-04T02:26:52;11.90;;;7.00;;
77322;SDS011;66384;51.052;9.850;2023-03-04T02:29:21;8.80;;;5.30;;
77322;SDS011;66384;51.052;9.850;2023-03-04T02:31:51;14.50;;;7.50;;
77322;SDS011;66384;51.052;9.850;2023-03-04T02:34:22;12.60;;;8.00;;
77322;SDS011;66384;51.052;9.850;2023-03-04T02:36:55;11.20;;;5.50;;
77322;SDS011;66384;51.052;9.850;2023-03-04T02:39:29;7.80;;;5.00;;
77322;SDS011;66384;51.052;9.850;2023-03-04T02:42:00;9.40;;;5.70;;
77322;SDS011;66384;51.052;9.850;2023-03-04T02:44:31;9.50;;;5.70;;
77322;SDS011;66384;51.052;9.850;2023-03-04T02:49:30;7.10;;;3.80;;
77322;SDS011;66384;51.052;9.850;2023-03-04T02:52:01;8.00;;;4.80;;
77322;SDS011;66384;51.052;9.850;2023-03-04T02:54:32;5.40;;;2.50;;
77322;SDS011;66384;51.052;9.850;2023-03-04T02:57:02;7.10;;;3.70;;
77322;SDS011;66384;51.052;9.850;2023-03-04T02:59:33;8.00;;;5.00;;
77322;SDS011;66384;51.052;9.850;2023-03-04T03:02:02;10.10;;;4.80;;
77322;SDS011;66384;51.052;9.850;2023-03-04T03:04:32;9.60;;;4.10;;
77322;SDS011;66384;51.052;9.850;2023-03-04T03:07:03;5.40;;;3.80;;
77322;SDS011;66384;51.052;9.850;2023-03-04T03:09:33;8.00;;;3.80;;
77322;SDS011;66384;51.052;9.850;2023-03-04T03:12:02;8.60;;;4.60;;
77322;SDS011;66384;51.052;9.850;2023-03-04T03:14:32;7.00;;;4.20;;
77322;SDS011;66384;51.052;9.850;2023-03-04T03:17:01;9.40;;;5.00;;
77322;SDS011;66384;51.052;9.850;2023-03-04T03:19:31;15.20;;;6.90;;
77322;SDS011;66384;51.052;9.850;2023-03-04T03:22:00;10.60;;;4.50;;
77322;SDS011;66384;51.052;9.850;2023-03-04T03:24:29;11.30;;;4.30;;
77322;SDS011;66384;51.052;9.850;2023-03-04T03:26:58;5.10;;;3.50;;
77322;SDS011;66384;51.052;9.850;2023-03-04T03:29:27;7.70;;;3.90;;
77322;SDS011;66384;51.052;9.850;2023-03-04T03:31:57;7.70;;;3.70;;
77322;SDS011;66384;51.052;9.850;2023-03-04T03:34:27;7.50;;;3.60;;
77322;SDS011;66384;51.052;9.850;2023-03-04T03:36:56;8.20;;;3.70;;
77322;SDS011;66384;51.052;9.850;2023-03-04T03:39:25;7.60;;;3.40;;
77322;SDS011;66384;51.052;9.850;2023-03-04T03:41:54;5.50;;;3.20;;
77322;SDS011;66384;51.052;9.850;2023-03-04T03:44:24;9.90;;;4.10;;
77322;SDS011;66384;51.052;9.850;2023-03-04T03:46:53;6.10;;;3.10;;
77322;SDS011;66384;51.052;9.850;2023-03-04T03:49:22;6.90;;;3.60;;
77322;SDS011;66384;51.052;9.850;2023-03-04T03:51:52;6.00;;;3.70;;
77322;SDS011;66384;51.052;9.850;2023-03-04T03:54:21;10.30;;;3.90;;
77322;SDS011;66384;51.052;9.850;2023-03-04T03:56:50;7.50;;;3.30;;
77322;SDS011;66384;51.052;9.850;2023-03-04T03:59:19;10.20;;;3.70;;
77322;SDS011;66384;51.052;9.850;2023-03-04T04:01:50;6.80;;;3.10;;
77322;SDS011;66384;51.052;9.850;2023-03-04T04:04:19;5.30;;;2.90;;
77322;SDS011;66384;51.052;9.850;2023-03-04T04:06:48;7.90;;;3.70;;
77322;SDS011;66384;51.052;9.850;2023-03-04T04:09:17;8.60;;;3.20;;
77322;SDS011;66384;51.052;9.850;2023-03-04T04:11:47;8.90;;;4.20;;
77322;SDS011;66384;51.052;9.850;2023-03-04T04:14:16;7.10;;;3.40;;
77322;SDS011;66384;51.052;9.850;2023-03-04T04:16:45;5.50;;;2.80;;
77322;SDS011;66384;51.052;9.850;2023-03-04T04:19:16;7.40;;;3.90;;
77322;SDS011;66384;51.052;9.850;2023-03-04T04:21:47;6.10;;;3.40;;
77322;SDS011;66384;51.052;9.850;2023-03-04T04:24:16;5.70;;;2.90;;
77322;SDS011;66384;51.052;9.850;2023-03-04T04:26:45;8.00;;;3.40;;
77322;SDS011;66384;51.052;9.850;2023-03-04T04:29:15;6.40;;;3.80;;
77322;SDS011;66384;51.052;9.850;2023-03-04T04:31:44;4.00;;;2.60;;
77322;SDS011;66384;51.052;9.850;2023-03-04T04:34:13;11.00;;;4.00;;
77322;SDS011;66384;51.052;9.850;2023-03-04T04:36:43;8.20;;;3.40;;
77322;SDS011;66384;51.052;9.850;2023-03-04T04:39:12;5.20;;;2.80;;
77322;SDS011;66384;51.052;9.850;2023-03-04T04:41:42;7.60;;;2.80;;
77322;SDS011;66384;51.052;9.850;2023-03-04T04:44:12;7.50;;;3.00;;
77322;SDS011;66384;51.052;9.850;2023-03-04T04:46:41;5.90;;;2.90;;
77322;SDS011;66384;51.052;9.850;2023-03-04T04:49:11;5.00;;;2.20;;
77322;SDS011;66384;51.052;9.850;2023-03-04T04:51:40;8.00;;;2.30;;
77322;SDS011;66384;51.052;9.850;2023-03-04T04:54:10;7.30;;;2.90;;
77322;SDS011;66384;51.052;9.850;2023-03-04T04:56:41;5.20;;;2.30;;
77322;SDS011;66384;51.052;9.850;2023-03-04T04:59:10;5.00;;;2.80;;
77322;SDS011;66384;51.052;9.850;2023-03-04T05:01:40;11.10;;;3.30;;
77322;SDS011;66384;51.052;9.850;2023-03-04T05:04:09;8.60;;;3.40;;
77322;SDS011;66384;51.052;9.850;2023-03-04T05:06:39;11.60;;;3.50;;
77322;SDS011;66384;51.052;9.850;2023-03-04T05:09:08;7.00;;;2.40;;
77322;SDS011;66384;51.052;9.850;2023-03-04T05:11:38;4.60;;;2.10;;
77322;SDS011;66384;51.052;9.850;2023-03-04T05:14:08;5.60;;;2.80;;
77322;SDS011;66384;51.052;9.850;2023-03-04T05:16:37;4.70;;;2.50;;
77322;SDS011;66384;51.052;9.850;2023-03-04T05:19:06;9.00;;;3.60;;
77322;SDS011;66384;51.052;9.850;2023-03-04T05:21:36;8.10;;;3.00;;
77322;SDS011;66384;51.052;9.850;2023-03-04T05:24:06;5.20;;;2.70;;
77322;SDS011;66384;51.052;9.850;2023-03-04T05:26:35;8.10;;;3.30;;
77322;SDS011;66384;51.052;9.850;2023-03-04T05:29:04;5.50;;;2.40;;
77322;SDS011;66384;51.052;9.850;2023-03-04T05:31:34;8.20;;;3.00;;
77322;SDS011;66384;51.052;9.850;2023-03-04T05:34:03;6.60;;;2.50;;
77322;SDS011;66384;51.052;9.850;2023-03-04T05:36:32;6.00;;;2.90;;
77322;SDS011;66384;51.052;9.850;2023-03-04T05:39:01;4.80;;;2.50;;
77322;SDS011;66384;51.052;9.850;2023-03-04T05:41:31;5.80;;;2.50;;
77322;SDS011;66384;51.052;9.850;2023-03-04T05:44:00;6.00;;;2.40;;
77322;SDS011;66384;51.052;9.850;2023-03-04T05:46:30;5.90;;;2.30;;
77322;SDS011;66384;51.052;9.850;2023-03-04T05:48:59;5.10;;;2.00;;
77322;SDS011;66384;51.052;9.850;2023-03-04T05:51:28;3.80;;;2.10;;
77322;SDS011;66384;51.052;9.850;2023-03-04T05:53:58;5.00;;;2.00;;
77322;SDS011;66384;51.052;9.850;2023-03-04T05:56:27;6.50;;;2.50;;
77322;SDS011;66384;51.052;9.850;2023-03-04T05:58:57;3.00;;;1.50;;
77322;SDS011;66384;51.052;9.850;2023-03-04T06:01:27;6.80;;;2.50;;
77322;SDS011;66384;51.052;9.850;2023-03-04T06:03:56;6.90;;;2.10;;
77322;SDS011;66384;51.052;9.850;2023-03-04T06:06:26;7.60;;;2.10;;
77322;SDS011;66384;51.052;9.850;2023-03-04T06:08:55;7.20;;;2.20;;
77322;SDS011;66384;51.052;9.850;2023-03-04T06:11:25;8.10;;;2.30;;
77322;SDS011;66384;51.052;9.850;2023-03-04T06:13:55;5.20;;;2.10;;
77322;SDS011;66384;51.052;9.850;2023-03-04T06:16:24;3.00;;;1.50;;
77322;SDS011;66384;51.052;9.850;2023-03-04T06:18:53;4.10;;;2.00;;
77322;SDS011;66384;51.052;9.850;2023-03-04T06:21:22;5.60;;;2.30;;
77322;SDS011;66384;51.052;9.850;2023-03-04T06:23:52;6.30;;;2.10;;
77322;SDS011;66384;51.052;9.850;2023-03-04T06:26:21;5.80;;;1.80;;
77322;SDS011;66384;51.052;9.850;2023-03-04T06:28:50;2.60;;;1.50;;
77322;SDS011;66384;51.052;9.850;2023-03-04T06:31:22;8.00;;;2.20;;
77322;SDS011;66384;51.052;9.850;2023-03-04T06:33:51;7.00;;;2.30;;
77322;SDS011;66384;51.052;9.850;2023-03-04T06:36:20;3.50;;;2.00;;
77322;SDS011;66384;51.052;9.850;2023-03-04T06:38:50;9.00;;;2.00;;
77322;SDS011;66384;51.052;9.850;2023-03-04T06:41:19;5.00;;;2.10;;
77322;SDS011;66384;51.052;9.850;2023-03-04T06:43:48;5.80;;;2.50;;
77322;SDS011;66384;51.052;9.850;2023-03-04T06:48:47;9.30;;;2.30;;
77322;SDS011;66384;51.052;9.850;2023-03-04T06:51:16;5.30;;;2.20;;
77322;SDS011;66384;51.052;9.850;2023-03-04T06:53:46;8.40;;;2.70;;
77322;SDS011;66384;51.052;9.850;2023-03-04T06:56:15;7.90;;;2.30;;
77322;SDS011;66384;51.052;9.850;2023-03-04T06:58:45;6.30;;;2.30;;
77322;SDS011;66384;51.052;9.850;2023-03-04T07:01:15;7.20;;;3.10;;
77322;SDS011;66384;51.052;9.850;2023-03-04T07:03:46;8.00;;;3.00;;
77322;SDS011;66384;51.052;9.850;2023-03-04T07:06:16;4.20;;;2.10;;
77322;SDS011;66384;51.052;9.850;2023-03-04T07:08:47;4.10;;;2.30;;
77322;SDS011;66384;51.052;9.850;2023-03-04T07:11:17;8.00;;;3.20;;
77322;SDS011;66384;51.052;9.850;2023-03-04T07:13:47;5.60;;;2.60;;
77322;SDS011;66384;51.052;9.850;2023-03-04T07:16:18;7.80;;;4.10;;
77322;SDS011;66384;51.052;9.850;2023-03-04T07:18:48;7.60;;;3.20;;
77322;SDS011;66384;51.052;9.850;2023-03-04T07:21:18;5.60;;;2.90;;
77322;SDS011;66384;51.052;9.850;2023-03-04T07:23:47;5.60;;;2.30;;
77322;SDS011;66384;51.052;9.850;2023-03-04T07:26:17;7.10;;;4.60;;
77322;SDS011;66384;51.052;9.850;2023-03-04T07:28:46;8.30;;;3.10;;
77322;SDS011;66384;51.052;9.850;2023-03-04T07:31:19;6.80;;;3.40;;
77322;SDS011;66384;51.052;9.850;2023-03-04T07:33:54;8.70;;;3.90;;
77322;SDS011;66384;51.052;9.850;2023-03-04T07:36:25;11.00;;;3.20;;
77322;SDS011;66384;51.052;9.850;2023-03-04T07:38:54;6.40;;;3.00;;
77322;SDS011;66384;51.052;9.850;2023-03-04T07:41:25;7.10;;;2.60;;
77322;SDS011;66384;51.052;9.850;2023-03-04T07:43:56;5.60;;;1.90;;
77322;SDS011;66384;51.052;9.850;2023-03-04T07:46:25;4.60;;;2.00;;
77322;SDS011;66384;51.052;9.850;2023-03-04T07:48:55;4.70;;;2.20;;
77322;SDS011;66384;51.052;9.850;2023-03-04T07:51:24;8.90;;;3.20;;
77322;SDS011;66384;51.052;9.850;2023-03-04T07:53:55;6.00;;;2.80;;
77322;SDS011;66384;51.052;9.850;2023-03-04T07:56:26;6.50;;;2.60;;
77322;SDS011;66384;51.052;9.850;2023-03-04T07:58:58;6.40;;;2.80;;
77322;SDS011;66384;51.052;9.850;2023-03-04T08:01:28;6.50;;;2.90;;
77322;SDS011;66384;51.052;9.850;2023-03-04T08:03:58;9.60;;;3.70;;
77322;SDS011;66384;51.052;9.850;2023-03-04T08:06:28;9.80;;;5.40;;
77322;SDS011;66384;51.052;9.850;2023-03-04T08:08:58;15.60;;;6.10;;
77322;SDS011;66384;51.052;9.850;2023-03-04T08:11:29;7.60;;;3.60;;
77322;SDS011;66384;51.052;9.850;2023-03-04T08:13:59;6.60;;;2.80;;
77322;SDS011;66384;51.052;9.850;2023-03-04T08:16:29;7.90;;;2.50;;
77322;SDS011;66384;51.052;9.850;2023-03-04T08:18:59;3.60;;;2.10;;
77322;SDS011;66384;51.052;9.850;2023-03-04T08:21:30;6.50;;;2.40;;
77322;SDS011;66384;51.052;9.850;2023-03-04T08:24:00;5.60;;;2.20;;
77322;SDS011;66384;51.052;9.850;2023-03-04T08:26:34;5.00;;;2.50;;
77322;SDS011;66384;51.052;9.850;2023-03-04T08:29:08;5.00;;;2.60;;
77322;SDS011;66384;51.052;9.850;2023-03-04T08:31:40;5.40;;;2.10;;
77322;SDS011;66384;51.052;9.850;2023-03-04T08:34:11;4.40;;;2.30;;
77322;SDS011;66384;51.052;9.850;2023-03-04T08:36:41;3.70;;;2.80;;
77322;SDS011;66384;51.052;9.850;2023-03-04T08:39:12;5.40;;;2.90;;
77322;SDS011;66384;51.052;9.850;2023-03-04T08:41:43;8.00;;;3.10;;
77322;SDS011;66384;51.052;9.850;2023-03-04T08:44:13;8.10;;;3.10;;
77322;SDS011;66384;51.052;9.850;2023-03-04T08:46:42;6.50;;;3.30;;
77322;SDS011;66384;51.052;9.850;2023-03-04T08:49:12;4.10;;;2.40;;
77322;SDS011;66384;51.052;9.850;2023-03-04T08:51:42;5.50;;;2.50;;
77322;SDS011;66384;51.052;9.850;2023-03-04T08:54:11;4.40;;;2.00;;
77322;SDS011;66384;51.052;9.850;2023-03-04T08:56:40;5.00;;;2.20;;
77322;SDS011;66384;51.052;9.850;2023-03-04T08:59:10;4.40;;;1.90;;
77322;SDS011;66384;51.052;9.850;2023-03-04T09:01:39;4.80;;;2.30;;
77322;SDS011;66384;51.052;9.850;2023-03-04T09:04:08;6.50;;;1.90;;
77322;SDS011;66384;51.052;9.850;2023-03-04T09:06:38;5.00;;;1.70;;
77322;SDS011;66384;51.052;9.850;2023-03-04T09:09:07;2.60;;;1.50;;
77322;SDS011;66384;51.052;9.850;2023-03-04T09:11:36;3.10;;;1.60;;
77322;SDS011;66384;51.052;9.850;2023-03-04T09:14:06;2.20;;;1.60;;
77322;SDS011;66384;51.052;9.850;2023-03-04T09:16:35;4.20;;;2.00;;
77322;SDS011;66384;51.052;9.850;2023-03-04T09:19:04;2.80;;;1.50;;
77322;SDS011;66384;51.052;9.850;2023-03-04T09:21:33;5.00;;;1.90;;
77322;SDS011;66384;51.052;9.850;2023-03-04T09:24:03;4.40;;;2.30;;
77322;SDS011;66384;51.052;9.850;2023-03-04T09:26:33;4.50;;;1.80;;
77322;SDS011;66384;51.052;9.850;2023-03-04T09:29:02;5.30;;;2.10;;
77322;SDS011;66384;51.052;9.850;2023-03-04T09:31:32;3.90;;;1.90;;
77322;SDS011;66384;51.052;9.850;2023-03-04T09:34:01;3.80;;;2.30;;
77322;SDS011;66384;51.052;9.850;2023-03-04T09:36:30;4.00;;;3.10;;
77322;SDS011;66384;51.052;9.850;2023-03-04T09:39:00;5.40;;;2.40;;
77322;SDS011;66384;51.052;9.850;2023-03-04T09:41:32;5.20;;;2.50;;
77322;SDS011;66384;51.052;9.850;2023-03-04T09:44:09;6.20;;;3.90;;
77322;SDS011;66384;51.052;9.850;2023-03-04T09:46:45;3.70;;;2.20;;
77322;SDS011;66384;51.052;9.850;2023-03-04T09:49:16;6.80;;;3.60;;
77322;SDS011;66384;51.052;9.850;2023-03-04T09:51:50;13.40;;;7.90;;
77322;SDS011;66384;51.052;9.850;2023-03-04T09:54:28;17.50;;;9.80;;
77322;SDS011;66384;51.052;9.850;2023-03-04T09:57:20;14.80;;;10.10;;
77322;SDS011;66384;51.052;9.850;2023-03-04T09:59:57;12.00;;;7.60;;
77322;SDS011;66384;51.052;9.850;2023-03-04T10:02:37;27.00;;;15.50;;
77322;SDS011;66384;51.052;9.850;2023-03-04T10:05:14;26.80;;;14.30;;
77322;SDS011;66384;51.052;9.850;2023-03-04T10:07:47;7.40;;;5.20;;
77322;SDS011;66384;51.052;9.850;2023-03-04T10:10:23;17.90;;;10.80;;
77322;SDS011;66384;51.052;9.850;2023-03-04T10:12:57;10.90;;;6.40;;
77322;SDS011;66384;51.052;9.850;2023-03-04T10:15:30;14.10;;;7.10;;
77322;SDS011;66384;51.052;9.850;2023-03-04T10:18:05;7.40;;;4.40;;
77322;SDS011;66384;51.052;9.850;2023-03-04T10:20:47;10.00;;;5.30;;
77322;SDS011;66384;51.052;9.850;2023-03-04T10:23:22;8.50;;;5.20;;
77322;SDS011;66384;51.052;9.850;2023-03-04T10:25:53;8.20;;;4.30;;
77322;SDS011;66384;51.052;9.850;2023-03-04T10:28:24;7.50;;;3.50;;
77322;SDS011;66384;51.052;9.850;2023-03-04T10:30:58;5.10;;;2.20;;
77322;SDS011;66384;51.052;9.850;2023-03-04T10:33:33;4.60;;;2.40;;
77322;SDS011;66384;51.052;9.850;2023-03-04T10:36:04;7.10;;;3.80;;
77322;SDS011;66384;51.052;9.850;2023-03-04T10:41:25;8.60;;;4.40;;
77322;SDS011;66384;51.052;9.850;2023-03-04T10:44:00;9.50;;;5.90;;
77322;SDS011;66384;51.052;9.850;2023-03-04T10:46:31;8.00;;;4.30;;
77322;SDS011;66384;51.052;9.850;2023-03-04T10:49:03;8.60;;;4.90;;
77322;SDS011;66384;51.052;9.850;2023-03-04T10:51:38;4.40;;;2.20;;
77322;SDS011;66384;51.052;9.850;2023-03-04T10:54:15;3.90;;;3.10;;
77322;SDS011;66384;51.052;9.850;2023-03-04T10:56:56;5.50;;;3.00;;
77322;SDS011;66384;51.052;9.850;2023-03-04T10:59:32;3.80;;;2.20;;
77322;SDS011;66384;51.052;9.850;2023-03-04T11:02:19;3.80;;;2.30;;
77322;SDS011;66384;51.052;9.850;2023-03-04T11:04:50;7.50;;;1.90;;
77322;SDS011;66384;51.052;9.850;2023-03-04T11:07:23;4.10;;;1.90;;
77322;SDS011;66384;51.052;9.850;2023-03-04T11:09:53;3.40;;;2.30;;
77322;SDS011;66384;51.052;9.850;2023-03-04T11:12:33;4.10;;;2.50;;
77322;SDS011;66384;51.052;9.850;2023-03-04T11:15:14;5.20;;;3.20;;
77322;SDS011;66384;51.052;9.850;2023-03-04T11:17:51;4.50;;;1.90;;
77322;SDS011;66384;51.052;9.850;2023-03-04T11:20:28;3.40;;;2.10;;
77322;SDS011;66384;51.052;9.850;2023-03-04T11:23:01;4.10;;;2.00;;
77322;SDS011;66384;51.052;9.850;2023-03-04T11:25:34;2.80;;;1.90;;
77322;SDS011;66384;51.052;9.850;2023-03-04T11:28:09;4.90;;;1.80;;
77322;SDS011;66384;51.052;9.850;2023-03-04T11:30:45;5.90;;;2.90;;
77322;SDS011;66384;51.052;9.850;2023-03-04T11:33:23;3.80;;;2.40;;
77322;SDS011;66384;51.052;9.850;2023-03-04T11:36:05;6.20;;;3.00;;
77322;SDS011;66384;51.052;9.850;2023-03-04T11:38:47;8.10;;;2.80;;
77322;SDS011;66384;51.052;9.850;2023-03-04T11:41:19;7.90;;;3.60;;
77322;SDS011;66384;51.052;9.850;2023-03-04T11:43:53;6.90;;;2.90;;
77322;SDS011;66384;51.052;9.850;2023-03-04T11:46:31;5.90;;;3.10;;
77322;SDS011;66384;51.052;9.850;2023-03-04T11:49:15;4.90;;;2.70;;
77322;SDS011;66384;51.052;9.850;2023-03-04T11:51:56;6.70;;;3.40;;
77322;SDS011;66384;51.052;9.850;2023-03-04T11:54:37;6.30;;;3.00;;
77322;SDS011;66384;51.052;9.850;2023-03-04T11:57:17;3.90;;;2.50;;
77322;SDS011;66384;51.052;9.850;2023-03-04T11:59:58;3.90;;;2.70;;
77322;SDS011;66384;51.052;9.850;2023-03-04T12:02:44;3.80;;;2.40;;
77322;SDS011;66384;51.052;9.850;2023-03-04T12:05:40;4.30;;;1.90;;
77322;SDS011;66384;51.052;9.850;2023-03-04T12:08:22;7.10;;;3.30;;
77322;SDS011;66384;51.052;9.850;2023-03-04T12:11:03;5.40;;;2.40;;
77322;SDS011;66384;51.052;9.850;2023-03-04T12:16:52;5.70;;;2.80;;
77322;SDS011;66384;51.052;9.850;2023-03-04T12:19:32;4.30;;;2.80;;
77322;SDS011;66384;51.052;9.850;2023-03-04T12:22:19;4.00;;;2.60;;
77322;SDS011;66384;51.052;9.850;2023-03-04T12:25:04;4.30;;;1.90;;
77322;SDS011;66384;51.052;9.850;2023-03-04T12:27:48;1.90;;;1.20;;
77322;SDS011;66384;51.052;9.850;2023-03-04T12:30:32;3.90;;;2.00;;
77322;SDS011;66384;51.052;9.850;2023-03-04T12:33:10;2.80;;;1.90;;
77322;SDS011;66384;51.052;9.850;2023-03-04T12:35:51;3.00;;;1.60;;
77322;SDS011;66384;51.052;9.850;2023-03-04T12:38:31;3.40;;;1.60;;
77322;SDS011;66384;51.052;9.850;2023-03-04T12:41:15;3.30;;;1.90;;
77322;SDS011;66384;51.052;9.850;2023-03-04T12:43:55;1.60;;;1.20;;
77322;SDS011;66384;51.052;9.850;2023-03-04T12:46:42;2.30;;;1.20;;
77322;SDS011;66384;51.052;9.850;2023-03-04T12:49:21;2.00;;;1.40;;
77322;SDS011;66384;51.052;9.850;2023-03-04T12:52:04;1.90;;;1.30;;
77322;SDS011;66384;51.052;9.850;2023-03-04T12:54:42;2.20;;;1.50;;
77322;SDS011;66384;51.052;9.850;2023-03-04T12:57:17;2.90;;;1.60;;
77322;SDS011;66384;51.052;9.850;2023-03-04T12:59:50;1.60;;;1.20;;
77322;SDS011;66384;51.052;9.850;2023-03-04T13:02:31;2.00;;;1.60;;
77322;SDS011;66384;51.052;9.850;2023-03-04T13:05:18;2.30;;;1.30;;
77322;SDS011;66384;51.052;9.850;2023-03-04T13:08:05;2.30;;;1.10;;
77322;SDS011;66384;51.052;9.850;2023-03-04T13:10:42;1.50;;;1.20;;
77322;SDS011;66384;51.052;9.850;2023-03-04T13:16:03;2.60;;;1.50;;
77322;SDS011;66384;51.052;9.850;2023-03-04T13:18:53;1.80;;;1.30;;
77322;SDS011;66384;51.052;9.850;2023-03-04T13:21:23;3.30;;;1.30;;
77322;SDS011;66384;51.052;9.850;2023-03-04T13:23:53;1.80;;;1.40;;
77322;SDS011;66384;51.052;9.850;2023-03-04T13:26:28;2.50;;;1.50;;
77322;SDS011;66384;51.052;9.850;2023-03-04T13:32:03;2.60;;;1.50;;
77322;SDS011;66384;51.052;9.850;2023-03-04T13:34:45;2.10;;;1.60;;
77322;SDS011;66384;51.052;9.850;2023-03-04T13:37:29;2.50;;;1.80;;
77322;SDS011;66384;51.052;9.850;2023-03-04T13:45:55;4.20;;;2.40;;
77322;SDS011;66384;51.052;9.850;2023-03-04T13:48:25;2.60;;;2.00;;
77322;SDS011;66384;51.052;9.850;2023-03-04T13:51:02;3.30;;;1.80;;
77322;SDS011;66384;51.052;9.850;2023-03-04T13:53:41;1.80;;;1.40;;
77322;SDS011;66384;51.052;9.850;2023-03-04T13:56:23;3.10;;;2.00;;
77322;SDS011;66384;51.052;9.850;2023-03-04T13:59:01;3.60;;;1.30;;
77322;SDS011;66384;51.052;9.850;2023-03-04T14:01:47;1.70;;;1.40;;
77322;SDS011;66384;51.052;9.850;2023-03-04T14:04:21;2.00;;;1.40;;
77322;SDS011;66384;51.052;9.850;2023-03-04T14:06:55;2.00;;;1.50;;
77322;SDS011;66384;51.052;9.850;2023-03-04T14:09:27;2.10;;;1.50;;
77322;SDS011;66384;51.052;9.850;2023-03-04T14:11:57;2.90;;;1.40;;
77322;SDS011;66384;51.052;9.850;2023-03-04T14:14:30;2.40;;;1.70;;
77322;SDS011;66384;51.052;9.850;2023-03-04T14:17:08;2.30;;;1.80;;
77322;SDS011;66384;51.052;9.850;2023-03-04T14:19:46;2.30;;;1.60;;
77322;SDS011;66384;51.052;9.850;2023-03-04T14:22:21;3.70;;;1.50;;
77322;SDS011;66384;51.052;9.850;2023-03-04T14:24:56;2.40;;;1.20;;
77322;SDS011;66384;51.052;9.850;2023-03-04T14:27:27;1.80;;;1.20;;
77322;SDS011;66384;51.052;9.850;2023-03-04T14:30:01;2.40;;;1.30;;
77322;SDS011;66384;51.052;9.850;2023-03-04T14:32:32;2.30;;;1.60;;
77322;SDS011;66384;51.052;9.850;2023-03-04T14:35:02;6.20;;;1.70;;
77322;SDS011;66384;51.052;9.850;2023-03-04T14:37:47;3.10;;;1.50;;
77322;SDS011;66384;51.052;9.850;2023-03-04T14:40:22;5.00;;;3.00;;
77322;SDS011;66384;51.052;9.850;2023-03-04T14:42:55;4.90;;;3.60;;
77322;SDS011;66384;51.052;9.850;2023-03-04T14:45:28;4.10;;;3.20;;
77322;SDS011;66384;51.052;9.850;2023-03-04T14:47:59;4.60;;;3.50;;
77322;SDS011;66384;51.052;9.850;2023-03-04T14:50:32;4.90;;;3.10;;
77322;SDS011;66384;51.052;9.850;2023-03-04T14:53:12;2.60;;;1.90;;
77322;SDS011;66384;51.052;9.850;2023-03-04T14:55:57;4.90;;;3.40;;
77322;SDS011;66384;51.052;9.850;2023-03-04T14:58:28;4.90;;;2.60;;
77322;SDS011;66384;51.052;9.850;2023-03-04T15:01:06;4.30;;;3.10;;
77322;SDS011;66384;51.052;9.850;2023-03-04T15:03:40;3.70;;;2.50;;
77322;SDS011;66384;51.052;9.850;2023-03-04T15:06:15;2.60;;;1.70;;
77322;SDS011;66384;51.052;9.850;2023-03-04T15:08:47;4.10;;;2.30;;
77322;SDS011;66384;51.052;9.850;2023-03-04T15:11:25;3.80;;;2.30;;
77322;SDS011;66384;51.052;9.850;2023-03-04T15:13:57;3.00;;;1.80;;
77322;SDS011;66384;51.052;9.850;2023-03-04T15:16:27;2.00;;;1.30;;
77322;SDS011;66384;51.052;9.850;2023-03-04T15:19:24;2.70;;;1.60;;
77322;SDS011;66384;51.052;9.850;2023-03-04T15:22:03;2.20;;;1.70;;
77322;SDS011;66384;51.052;9.850;2023-03-04T15:24:32;3.50;;;2.00;;
77322;SDS011;66384;51.052;9.850;2023-03-04T15:27:02;2.70;;;1.50;;
77322;SDS011;66384;51.052;9.850;2023-03-04T15:29:33;1.80;;;1.60;;
77322;SDS011;66384;51.052;9.850;2023-03-04T15:32:02;3.40;;;1.60;;
77322;SDS011;66384;51.052;9.850;2023-03-04T15:34:32;2.10;;;1.60;;
77322;SDS011;66384;51.052;9.850;2023-03-04T15:37:01;4.10;;;1.80;;
77322;SDS011;66384;51.052;9.850;2023-03-04T15:39:31;3.90;;;2.70;;
77322;SDS011;66384;51.052;9.850;2023-03-04T15:42:00;3.00;;;1.90;;